KPAN

Payson Airport

Payson, Arizona, USA
METAR KPAN 151635Z AUTO 06004KT 10SM CLR 08/M13 A3025 RMK AO2
Observed Flight Rules
Dec-15 @ 16:35 UTC (20 minutes ago) Visual Flight Rules
Wind Visibility Clouds
60° at 4 knots 10 miles
  • Clear skies
Temperatures Readings
Current 8°C / 46°F
Dewpoint -13°C / 9°F
Humidity 21%
Altimeter 30.25" Hg
Pressure 1024 hPa
Elevation 1572
METAR KPAN 151635Z AUTO 06004KT 10SM CLR 08/M13 A3025 RMK AO2
Observed Flight Rules
Dec-15 @ 16:35 UTC
(20 minutes ago)
VFR
Wind Visibility
60° at 4 knots 10 miles
Clouds
  • Clear skies
Temperature Dewpoint
8°C / 46°F -13°C / 9°F
Humidity Altimeter Pressure
21% 30.25" Hg 1024 hPa